Time;durP1;ratioP1;P1;durP2;ratioP2;P2;SDS_P1;SDS_P2;PMS_P1;PMS_P2;Temp;Humidity;BMP_temperature;BMP_pressure;BME280_temperature;BME280_humidity;BME280_pressure;Samples;Min_cycle;Max_cycle;Signal;HPM_P1;HPM_P2
2021/10/23 00:00:05;;;;;;;7.68;0.90;;;;;;;9.63;47.17;98262.59;3389963;29;20120;-73
2021/10/23 00:01:52;;;;;;;2.10;0.90;;;;;;;9.74;47.09;98270.66;3390751;29;20203;-74
2021/10/23 00:03:32;;;;;;;6.38;1.25;;;;;;;9.69;47.11;98256.41;3392817;29;20052;-73
2021/10/23 00:05:13;;;;;;;4.10;1.52;;;;;;;9.75;47.17;98256.28;3388334;29;20126;-73
2021/10/23 00:06:53;;;;;;;2.20;0.98;;;;;;;9.78;47.21;98265.69;3388719;29;20420;-74
2021/10/23 00:08:34;;;;;;;2.35;1.10;;;;;;;9.81;47.11;98273.25;3387282;29;20103;-74
2021/10/23 00:10:15;;;;;;;3.17;1.05;;;;;;;9.80;47.03;98275.06;3389043;29;20342;-73
2021/10/23 00:11:55;;;;;;;4.65;1.15;;;;;;;9.74;46.93;98254.69;3388844;29;20044;-73
2021/10/23 00:13:36;;;;;;;2.35;1.00;;;;;;;9.77;47.19;98269.38;3388782;29;20143;-72
2021/10/23 00:15:17;;;;;;;2.55;0.93;;;;;;;9.75;46.99;98250.97;3379678;29;20119;-73
2021/10/23 00:16:58;;;;;;;6.25;1.30;;;;;;;9.77;47.02;98259.56;3376385;29;20111;-72
2021/10/23 00:18:38;;;;;;;2.10;1.00;;;;;;;9.75;47.03;98258.16;3376301;29;20045;-74
2021/10/23 00:20:19;;;;;;;5.07;1.30;;;;;;;9.75;47.21;98266.13;3375860;29;20179;-74
2021/10/23 00:22:00;;;;;;;5.95;1.33;;;;;;;9.73;47.36;98257.56;3376014;29;20453;-73
2021/10/23 00:23:41;;;;;;;3.10;0.80;;;;;;;9.71;47.25;98247.16;3377050;29;20053;-74
2021/10/23 00:25:22;;;;;;;2.63;1.00;;;;;;;9.75;47.39;98258.97;3387382;29;20051;-74
2021/10/23 00:27:02;;;;;;;1.65;1.08;;;;;;;9.72;47.22;98261.25;3389015;29;20051;-73
2021/10/23 00:28:43;;;;;;;1.52;0.90;;;;;;;9.71;47.26;98260.47;3388567;29;20075;-74
2021/10/23 00:30:24;;;;;;;2.70;1.10;;;;;;;9.72;47.38;98264.72;3388838;29;20441;-74
2021/10/23 00:32:05;;;;;;;5.28;1.55;;;;;;;9.71;47.47;98260.47;3388939;29;20515;-73
2021/10/23 00:33:45;;;;;;;1.00;0.90;;;;;;;9.73;47.57;98255.72;3388533;29;20074;-74
2021/10/23 00:35:26;;;;;;;3.35;1.55;;;;;;;9.77;47.45;98264.06;3375566;29;20567;-74
2021/10/23 00:37:07;;;;;;;3.42;1.13;;;;;;;9.77;47.55;98264.06;3375844;29;20057;-73
2021/10/23 00:38:48;;;;;;;3.45;1.00;;;;;;;9.77;47.29;98256.09;3375886;29;20066;-72
2021/10/23 00:40:29;;;;;;;4.18;1.23;;;;;;;9.73;47.27;98247.75;3376034;29;20051;-73
2021/10/23 00:42:09;;;;;;;6.67;1.30;;;;;;;9.75;47.43;98264.28;3376081;29;20052;-74
2021/10/23 00:43:50;;;;;;;3.75;1.30;;;;;;;9.78;47.50;98260.34;3375648;29;20676;-74
2021/10/23 00:45:31;;;;;;;2.95;1.38;;;;;;;9.78;47.61;98257.69;3383311;29;20503;-74
2021/10/23 00:47:14;;;;;;;3.88;1.63;;;;;;;9.76;47.61;98257.13;3374855;29;20048;-74
2021/10/23 00:48:54;;;;;;;2.88;1.23;;;;;;;9.71;47.60;98257.81;3375536;29;20076;-74
2021/10/23 00:50:36;;;;;;;5.32;1.25;;;;;;;9.67;47.67;98258.47;3375374;29;20036;-75
2021/10/23 00:52:16;;;;;;;2.17;1.20;;;;;;;9.67;47.90;98253.94;3375867;29;20056;-75
2021/10/23 00:53:57;;;;;;;5.15;1.95;;;;;;;9.71;48.06;98265.78;3375539;29;20309;-74
2021/10/23 00:55:39;;;;;;;3.28;1.02;;;;;;;9.75;48.06;98258.16;3382502;29;20583;-73
2021/10/23 00:57:20;;;;;;;2.53;1.33;;;;;;;9.78;47.73;98255.03;3388438;29;20103;-74
2021/10/23 00:59:01;;;;;;;5.25;1.30;;;;;;;9.83;47.88;98255.19;3387580;29;20070;-75
2021/10/23 01:00:41;;;;;;;1.20;1.05;;;;;;;9.81;47.92;98262.59;3388633;29;20044;-75
2021/10/23 01:02:22;;;;;;;1.65;1.00;;;;;;;9.84;47.70;98259.47;3386850;29;20071;-74
2021/10/23 01:04:03;;;;;;;2.28;0.90;;;;;;;9.90;47.70;98271.88;3387786;29;20091;-75
2021/10/23 01:05:43;;;;;;;4.88;1.00;;;;;;;9.92;47.85;98271.66;3386679;29;20504;-73
2021/10/23 01:07:24;;;;;;;1.30;1.10;;;;;;;9.95;47.63;98268.53;3388766;29;20050;-74
2021/10/23 01:09:05;;;;;;;3.20;1.10;;;;;;;9.98;47.75;98265.44;3375030;29;20048;-73
2021/10/23 01:10:46;;;;;;;3.97;1.05;;;;;;;9.99;47.99;98272.34;3385997;29;20058;-74
2021/10/23 01:12:27;;;;;;;1.63;0.90;;;;;;;9.96;47.85;98273.63;3388364;29;20048;-74
2021/10/23 01:14:19;;;;;;;1.98;1.85;;;;;;;9.96;47.98;98281.59;3388545;29;20051;-73
2021/10/23 01:15:59;;;;;;;2.83;0.90;;;;;;;9.93;48.00;98279.41;3378055;29;20043;-73
2021/10/23 01:17:40;;;;;;;1.92;1.02;;;;;;;9.94;47.94;98275.72;3375254;29;20083;-73
2021/10/23 01:19:21;;;;;;;2.78;1.42;;;;;;;9.88;48.07;98265.16;3375736;29;20049;-73
2021/10/23 01:21:02;;;;;;;5.27;1.60;;;;;;;9.82;48.06;98275.66;3375518;29;20040;-75
2021/10/23 01:22:43;;;;;;;3.13;1.10;;;;;;;9.77;48.22;98272.03;3375558;29;20052;-74
2021/10/23 01:24:24;;;;;;;7.85;1.15;;;;;;;9.78;48.23;98271.00;3375134;29;20052;-72
2021/10/23 01:26:04;;;;;;;4.78;1.35;;;;;;;9.76;48.33;98270.44;3385295;29;20588;-72
2021/10/23 01:27:45;;;;;;;4.13;1.42;;;;;;;9.74;48.39;98277.81;3388500;29;20103;-71
2021/10/23 01:29:26;;;;;;;6.22;1.05;;;;;;;9.72;48.33;98272.72;3388357;29;20032;-74
2021/10/23 01:31:07;;;;;;;1.63;1.05;;;;;;;9.75;48.41;98276.78;3387187;29;20044;-74
2021/10/23 01:32:48;;;;;;;4.50;1.50;;;;;;;9.77;48.47;98269.38;3388135;29;20051;-75
2021/10/23 01:34:28;;;;;;;7.72;1.13;;;;;;;9.76;48.37;98281.06;3388380;29;20048;-75
2021/10/23 01:36:10;;;;;;;4.43;0.98;;;;;;;9.79;48.38;98280.63;3386930;29;20040;-76
2021/10/23 01:37:51;;;;;;;;;;;;;;;9.91;48.27;98275.34;3391502;29;20044;-74
2021/10/23 01:39:34;;;;;;;2.35;0.82;;;;;;;9.83;48.41;98273.81;3391151;29;19915;-76
2021/10/23 01:41:15;;;;;;;5.28;1.88;;;;;;;9.82;48.42;98270.34;3391051;29;20047;-76
2021/10/23 01:42:56;;;;;;;5.07;1.52;;;;;;;9.83;48.19;98266.66;3391064;29;20040;-74
2021/10/23 01:44:36;;;;;;;2.40;1.23;;;;;;;9.83;48.37;98268.47;3391231;29;20078;-76
2021/10/23 01:46:17;;;;;;;7.15;1.42;;;;;;;9.81;48.54;98282.03;3384394;29;20500;-75
2021/10/23 01:47:58;;;;;;;1.55;1.10;;;;;;;9.81;48.34;98270.56;3376929;29;20051;-75
2021/10/23 01:49:39;;;;;;;2.25;1.20;;;;;;;9.80;48.67;98268.94;3377948;29;20056;-74
2021/10/23 01:51:20;;;;;;;2.55;1.02;;;;;;;9.79;48.47;98278.78;3377810;29;20131;-75
2021/10/23 01:53:00;;;;;;;6.80;1.20;;;;;;;9.77;48.50;98264.06;3377919;29;20059;-75
2021/10/23 01:54:42;;;;;;;3.78;1.20;;;;;;;9.80;48.71;98279.56;3377088;29;20048;-76
2021/10/23 01:56:23;;;;;;;8.70;1.30;;;;;;;9.83;48.73;98269.31;3378184;29;21006;-76
2021/10/23 01:58:03;;;;;;;1.60;1.40;;;;;;;9.88;48.72;98276.59;3383379;29;20143;-75
2021/10/23 01:59:44;;;;;;;2.58;1.10;;;;;;;9.89;48.48;98272.91;3390935;29;20119;-74
2021/10/23 02:01:25;;;;;;;2.10;1.17;;;;;;;9.88;48.52;98279.25;3390893;29;20574;-73
2021/10/23 02:03:06;;;;;;;4.13;1.30;;;;;;;9.85;48.64;98269.06;3391075;29;20123;-74
2021/10/23 02:04:46;;;;;;;2.90;1.02;;;;;;;9.85;48.68;98282.38;3390524;29;20504;-74
2021/10/23 02:06:27;;;;;;;3.35;1.20;;;;;;;9.78;48.73;98268.34;3378887;29;20389;-73
2021/10/23 02:08:10;;;;;;;3.30;1.25;;;;;;;9.80;48.78;98280.38;3388527;29;20047;-73
2021/10/23 02:09:50;;;;;;;1.52;0.98;;;;;;;9.77;48.73;98274.72;3380117;29;20123;-73
2021/10/23 02:11:31;;;;;;;4.72;1.25;;;;;;;9.75;49.46;98271.44;3378401;29;20045;-76
2021/10/23 02:13:12;;;;;;;2.10;1.48;;;;;;;9.79;49.66;98277.97;3377751;29;20048;-75
2021/10/23 02:14:52;;;;;;;7.68;1.40;;;;;;;9.86;49.53;98293.81;3377623;29;20040;-74
2021/10/23 02:16:33;;;;;;;5.45;1.27;;;;;;;9.89;49.66;98283.56;3377249;29;20045;-77
2021/10/23 02:18:14;;;;;;;3.65;1.58;;;;;;;9.94;49.50;98267.72;3378298;29;20096;-76
2021/10/23 02:19:54;;;;;;;5.20;1.20;;;;;;;10.00;49.61;98274.81;3377964;29;20075;-75
2021/10/23 02:21:35;;;;;;;0.80;0.80;;;;;;;10.04;49.52;98277.81;3377820;29;20061;-77
2021/10/23 02:23:15;;;;;;;4.75;1.35;;;;;;;10.06;49.44;98278.41;3377791;29;20468;-73
2021/10/23 02:24:56;;;;;;;3.85;0.85;;;;;;;10.03;49.46;98269.03;3377846;29;20049;-75
2021/10/23 02:26:37;;;;;;;3.50;1.20;;;;;;;10.12;49.81;98277.53;3376839;29;20124;-79
2021/10/23 02:28:18;;;;;;;3.92;1.67;;;;;;;10.20;49.93;98271.88;3378329;29;20036;-75
2021/10/23 02:29:59;;;;;;;4.43;1.33;;;;;;;10.25;49.50;98280.00;3376933;29;20146;-77
2021/10/23 02:31:39;;;;;;;1.33;0.87;;;;;;;10.39;50.59;98272.63;3377953;29;20040;-77
2021/10/23 02:33:20;;;;;;;3.80;1.10;;;;;;;10.52;49.83;98278.81;3378341;29;20136;-78
2021/10/23 02:35:01;;;;;;;3.13;1.10;;;;;;;10.54;49.70;98285.53;3378462;29;20516;-76
2021/10/23 02:36:41;;;;;;;1.88;1.30;;;;;;;10.51;49.14;98271.84;3379069;29;20048;-76
2021/10/23 02:38:23;;;;;;;2.30;1.20;;;;;;;10.56;48.91;98282.63;3386220;29;20408;-77
2021/10/23 02:40:05;;;;;;;5.68;1.50;;;;;;;10.46;48.98;98259.22;3378403;29;20067;-77
2021/10/23 02:41:45;;;;;;;4.60;1.35;;;;;;;10.45;48.88;98279.72;3393474;29;20039;-75
2021/10/23 02:43:26;;;;;;;4.60;1.73;;;;;;;10.39;48.91;98272.63;3382572;29;20049;-77
2021/10/23 02:45:08;;;;;;;2.25;1.25;;;;;;;10.42;49.18;98277.50;3377470;29;20412;-78
2021/10/23 02:46:50;;;;;;;1.70;1.17;;;;;;;10.45;48.99;98270.91;3389777;29;20143;-75
2021/10/23 02:48:30;;;;;;;4.43;2.13;;;;;;;10.32;48.88;98255.94;3387274;29;20099;-75
2021/10/23 02:50:11;;;;;;;1.77;0.90;;;;;;;10.48;49.12;98281.94;3384305;29;20052;-74
2021/10/23 02:51:52;;;;;;;3.17;1.17;;;;;;;10.51;49.05;98282.50;3384548;29;20045;-74
2021/10/23 02:53:33;;;;;;;3.30;1.20;;;;;;;10.50;48.73;98279.03;3382415;29;20048;-75
2021/10/23 02:55:15;;;;;;;2.13;1.35;;;;;;;10.48;48.92;98276.63;3384314;29;20491;-75
2021/10/23 02:56:56;;;;;;;2.05;1.38;;;;;;;10.47;48.91;98272.31;3377142;29;20048;-75
2021/10/23 02:58:37;;;;;;;4.75;1.30;;;;;;;10.52;48.71;98276.94;3380531;29;20524;-74
2021/10/23 03:00:18;;;;;;;3.40;1.30;;;;;;;10.52;48.75;98265.50;3387440;29;20529;-75
2021/10/23 03:01:58;;;;;;;3.90;1.10;;;;;;;10.55;48.80;98281.00;3380235;29;20092;-76
2021/10/23 03:03:39;;;;;;;2.67;1.08;;;;;;;10.59;48.76;98276.88;3379972;29;20374;-78
2021/10/23 03:05:20;;;;;;;5.82;1.65;;;;;;;10.57;48.70;98276.28;3386971;29;20067;-74
2021/10/23 03:07:02;;;;;;;6.97;1.30;;;;;;;10.64;48.93;98279.66;3378437;29;20044;-77
2021/10/23 03:08:42;;;;;;;2.40;1.20;;;;;;;10.70;49.15;98274.19;3376224;29;20056;-73
2021/10/23 03:10:25;;;;;;;2.92;1.13;;;;;;;10.73;48.64;98274.78;3377364;29;20047;-74
2021/10/23 03:12:06;;;;;;;7.32;1.77;;;;;;;10.72;48.48;98273.16;3377856;29;20064;-76
2021/10/23 03:13:46;;;;;;;2.33;1.52;;;;;;;10.68;48.55;98275.47;3377532;29;20045;-78
2021/10/23 03:15:27;;;;;;;4.75;1.45;;;;;;;10.70;49.07;98284.06;3377007;29;20052;-75
2021/10/23 03:17:07;;;;;;;2.40;1.30;;;;;;;10.79;49.44;98280.00;3377274;29;20048;-76
2021/10/23 03:18:48;;;;;;;4.93;1.60;;;;;;;10.85;49.25;98279.09;3386837;29;20044;-75
2021/10/23 03:20:30;;;;;;;3.28;1.50;;;;;;;10.99;48.75;98289.50;3390113;29;20047;-77
2021/10/23 03:22:10;;;;;;;4.22;1.65;;;;;;;10.97;48.44;98291.59;3390000;29;20139;-73
2021/10/23 03:23:51;;;;;;;5.53;1.42;;;;;;;10.86;48.42;98293.22;3389834;29;20048;-75
2021/10/23 03:25:32;;;;;;;2.75;1.20;;;;;;;10.79;48.47;98293.34;3387388;29;20046;-74
2021/10/23 03:27:14;;;;;;;1.92;1.15;;;;;;;10.75;48.39;98291.34;3376646;29;20037;-75
2021/10/23 03:28:56;;;;;;;5.60;1.80;;;;;;;10.80;48.56;98288.81;3377716;29;20052;-74
2021/10/23 03:30:36;;;;;;;8.93;1.40;;;;;;;10.83;48.58;98288.34;3376852;29;20041;-74
2021/10/23 03:32:18;;;;;;;1.95;1.38;;;;;;;10.87;48.70;98284.19;3376496;29;20528;-79
2021/10/23 03:33:59;;;;;;;1.98;1.45;;;;;;;10.86;48.33;98278.03;3376821;29;20048;-77
2021/10/23 03:35:39;;;;;;;4.87;1.37;;;;;;;10.88;48.49;98280.47;3380068;29;20142;-79
2021/10/23 03:37:21;;;;;;;7.10;2.05;;;;;;;10.86;48.74;98282.56;3381031;29;20037;-76
2021/10/23 03:39:03;;;;;;;3.70;1.38;;;;;;;10.83;48.55;98283.03;3380664;29;20120;-78
2021/10/23 03:40:44;;;;;;;2.58;1.27;;;;;;;10.80;48.61;98284.28;3376821;29;20040;-76
2021/10/23 03:42:24;;;;;;;4.65;1.40;;;;;;;10.71;48.24;98277.66;3376570;29;20044;-76
2021/10/23 03:44:06;;;;;;;4.68;1.60;;;;;;;10.61;48.35;98280.91;3376682;29;20087;-79
2021/10/23 03:45:46;;;;;;;5.55;1.50;;;;;;;10.55;48.28;98278.34;3381511;29;20520;-78
2021/10/23 03:47:31;;;;;;;5.95;1.20;;;;;;;10.51;48.65;98295.81;3388324;29;20448;-79
2021/10/23 03:49:12;;;;;;;3.90;1.67;;;;;;;10.49;48.71;98296.06;3381017;29;20094;-75
2021/10/23 03:50:54;;;;;;;9.82;1.45;;;;;;;10.51;48.93;98294.00;3389364;29;20111;-77
2021/10/23 03:52:34;;;;;;;5.88;1.85;;;;;;;10.52;48.71;98294.78;3389634;29;20048;-78
2021/10/23 03:54:15;;;;;;;4.60;1.55;;;;;;;10.48;48.65;98295.25;3390579;29;20416;-76
2021/10/23 03:55:56;;;;;;;3.83;1.52;;;;;;;10.43;48.95;98297.78;3388739;29;20040;-78
2021/10/23 03:57:37;;;;;;;16.13;2.25;;;;;;;10.44;48.68;98304.72;3389777;29;20044;-75
2021/10/23 03:59:18;;;;;;;2.23;1.53;;;;;;;10.37;48.90;98306.66;3386752;29;20083;-77
2021/10/23 04:00:59;;;;;;;4.30;1.58;;;;;;;10.38;49.76;98308.31;3389070;29;20075;-76
2021/10/23 04:02:41;;;;;;;;;;;;;;;10.58;50.35;98312.50;3389856;29;20056;-73
2021/10/23 04:04:23;;;;;;;3.73;1.63;;;;;;;10.86;51.28;98309.22;3389369;29;19923;-75
2021/10/23 04:06:03;;;;;;;5.95;1.00;;;;;;;11.25;52.53;98302.38;3381517;29;20370;-74
2021/10/23 04:07:47;;;;;;;3.67;1.65;;;;;;;11.53;50.64;98306.16;3382931;29;20075;-74
2021/10/23 04:09:27;;;;;;;5.20;1.95;;;;;;;11.71;50.05;98311.34;3385907;29;20040;-73
2021/10/23 04:11:09;;;;;;;11.00;2.15;;;;;;;11.87;50.58;98303.69;3389415;29;20040;-74
2021/10/23 04:12:50;;;;;;;4.60;1.58;;;;;;;12.11;50.85;98315.91;3389085;29;20040;-75
2021/10/23 04:14:31;;;;;;;5.45;1.42;;;;;;;12.30;49.56;98318.38;3387888;29;20092;-74
2021/10/23 04:16:13;;;;;;;2.80;1.70;;;;;;;12.49;49.48;98317.13;3388060;29;20459;-71
2021/10/23 04:17:54;;;;;;;4.43;1.97;;;;;;;12.65;48.88;98311.00;3400572;29;20160;-75
2021/10/23 04:19:35;;;;;;;4.20;1.63;;;;;;;12.79;48.89;98310.69;3402531;29;20346;-74
2021/10/23 04:21:16;;;;;;;3.53;1.30;;;;;;;12.93;48.17;98314.63;3391494;29;20355;-74
2021/10/23 04:22:56;;;;;;;5.97;1.73;;;;;;;12.99;47.27;98316.34;3383848;29;20041;-72
2021/10/23 04:24:39;;;;;;;4.88;1.27;;;;;;;13.01;47.72;98319.59;3386483;29;20040;-74
2021/10/23 04:26:19;;;;;;;7.60;1.65;;;;;;;12.97;48.09;98318.44;3378690;29;20047;-74
2021/10/23 04:28:00;;;;;;;5.80;1.45;;;;;;;13.02;47.62;98315.06;3386630;29;20047;-74
2021/10/23 04:29:41;;;;;;;3.75;1.80;;;;;;;13.17;47.16;98327.84;3388134;29;20043;-78
2021/10/23 04:31:21;;;;;;;6.43;1.75;;;;;;;13.28;47.01;98324.28;3384920;29;20051;-73
2021/10/23 04:33:02;;;;;;;11.80;2.20;;;;;;;13.33;45.81;98321.69;3388090;29;20259;-73
2021/10/23 04:34:43;;;;;;;4.43;1.40;;;;;;;13.37;45.67;98319.31;3380277;29;20037;-73
2021/10/23 04:36:24;;;;;;;1.75;1.30;;;;;;;13.37;45.32;98317.47;3375837;29;20044;-72
2021/10/23 04:38:05;;;;;;;4.80;1.60;;;;;;;13.44;45.57;98328.78;3375965;29;20144;-74
2021/10/23 04:39:45;;;;;;;2.53;1.33;;;;;;;13.41;45.16;98318.59;3380726;29;20496;-75
2021/10/23 04:41:26;;;;;;;2.65;1.33;;;;;;;13.31;45.28;98323.78;3376472;29;20079;-76
2021/10/23 04:43:06;;;;;;;3.50;1.92;;;;;;;13.24;45.48;98313.25;3374855;29;20048;-77
2021/10/23 04:44:48;;;;;;;5.40;1.75;;;;;;;13.28;45.44;98321.63;3371748;29;20044;-76
2021/10/23 04:46:29;;;;;;;3.63;1.58;;;;;;;13.35;45.18;98324.13;3381173;29;20655;-79
2021/10/23 04:48:09;;;;;;;6.25;1.73;;;;;;;13.22;44.53;98306.53;3388937;29;20036;-79
2021/10/23 04:49:50;;;;;;;9.52;1.73;;;;;;;12.96;44.58;98305.31;3387832;29;20051;-81
2021/10/23 04:51:31;;;;;;;2.97;1.77;;;;;;;12.74;44.66;98307.91;3388155;29;20059;-80
2021/10/23 04:53:12;;;;;;;5.35;1.75;;;;;;;12.46;44.78;98312.25;3386689;29;20044;-80
2021/10/23 04:54:54;;;;;;;4.82;1.73;;;;;;;12.37;45.07;98324.41;3384837;29;20048;-80
2021/10/23 04:56:37;;;;;;;4.32;1.58;;;;;;;12.08;45.38;98321.75;3389392;29;20084;-80
2021/10/23 04:58:18;;;;;;;5.65;2.13;;;;;;;11.95;45.97;98330.84;3380102;29;20571;-82
2021/10/23 05:00:00;;;;;;;7.15;1.80;;;;;;;11.88;45.98;98332.81;3380904;29;20639;-82
2021/10/23 05:01:42;;;;;;;4.38;1.83;;;;;;;11.70;46.19;98328.41;3378260;29;20040;-81
2021/10/23 05:03:24;;;;;;;6.40;2.28;;;;;;;11.65;46.41;98333.66;3384903;29;20514;-83
2021/10/23 05:05:05;;;;;;;4.53;1.55;;;;;;;11.52;46.51;98316.03;3404878;29;20126;-82
2021/10/23 05:06:46;;;;;;;9.30;1.83;;;;;;;11.58;46.50;98327.63;3403767;29;20125;-79
2021/10/23 05:08:28;;;;;;;;;;;;;;;11.72;46.62;98334.34;3400213;29;20575;-81
2021/10/23 05:10:09;;;;;;;6.50;1.85;;;;;;;11.57;46.55;98320.69;3378534;29;19931;-79
2021/10/23 05:11:49;;;;;;;7.90;2.13;;;;;;;11.52;46.51;98324.03;3383850;29;20580;-79
2021/10/23 05:13:30;;;;;;;6.18;2.67;;;;;;;11.47;46.61;98320.47;3384430;29;20055;-79
2021/10/23 05:15:11;;;;;;;6.50;2.00;;;;;;;11.51;46.82;98332.28;3390574;29;20044;-80
2021/10/23 05:16:52;;;;;;;7.13;2.47;;;;;;;11.54;46.70;98327.28;3374464;29;20429;-81
2021/10/23 05:18:32;;;;;;;7.53;1.88;;;;;;;11.54;46.94;98326.50;3400314;29;20051;-79
2021/10/23 05:20:14;;;;;;;3.35;1.80;;;;;;;11.49;46.98;98318.38;3392222;29;20040;-81
2021/10/23 05:21:55;;;;;;;7.07;2.17;;;;;;;11.53;46.84;98328.31;3388974;29;20047;-81
2021/10/23 05:23:36;;;;;;;4.72;1.88;;;;;;;11.43;47.08;98321.97;3385761;29;20492;-81
2021/10/23 05:25:16;;;;;;;2.60;1.50;;;;;;;11.37;47.05;98326.38;3386015;29;20135;-80
2021/10/23 05:26:57;;;;;;;5.68;1.90;;;;;;;11.36;47.18;98332.78;3390578;29;20151;-80
2021/10/23 05:28:38;;;;;;;2.33;1.80;;;;;;;11.29;47.18;98329.41;3391530;29;20880;-81
2021/10/23 05:30:19;;;;;;;2.50;1.53;;;;;;;11.40;47.30;98335.78;3390977;29;20040;-81
2021/10/23 05:32:00;;;;;;;3.05;1.73;;;;;;;11.56;47.19;98332.38;3388279;29;20713;-80
2021/10/23 05:33:40;;;;;;;4.03;1.90;;;;;;;11.71;46.85;98332.69;3377817;29;20130;-81
2021/10/23 05:35:21;;;;;;;5.07;1.80;;;;;;;11.71;46.63;98351.38;3378314;29;20369;-81
2021/10/23 05:37:02;;;;;;;5.32;1.63;;;;;;;11.68;46.51;98343.03;3377177;29;20496;-82
2021/10/23 05:38:43;;;;;;;8.25;1.80;;;;;;;11.77;46.63;98342.47;3376394;29;20084;-80
2021/10/23 05:40:24;;;;;;;2.63;1.67;;;;;;;11.76;46.65;98338.16;3376505;29;20055;-81
2021/10/23 05:42:05;;;;;;;2.70;1.70;;;;;;;11.91;46.47;98347.56;3376528;29;20049;-79
2021/10/23 05:43:45;;;;;;;4.97;1.33;;;;;;;12.12;46.32;98340.75;3387059;29;20839;-81
2021/10/23 05:45:26;;;;;;;4.30;2.05;;;;;;;12.25;46.00;98347.69;3388686;29;20044;-82
2021/10/23 05:47:07;;;;;;;4.75;2.47;;;;;;;12.34;45.66;98351.56;3385871;29;20048;-80
2021/10/23 05:48:48;;;;;;;4.03;1.10;;;;;;;12.37;46.04;98346.59;3388667;29;20122;-80
2021/10/23 05:50:29;;;;;;;2.85;1.88;;;;;;;12.54;45.94;98351.16;3389617;29;20456;-80
2021/10/23 05:52:11;;;;;;;8.70;3.38;;;;;;;12.58;45.51;98346.94;3388456;29;20044;-78
2021/10/23 05:53:51;;;;;;;;;;;;;;;12.67;45.39;98361.53;3383802;29;20048;-78
2021/10/23 05:55:32;;;;;;;3.42;1.60;;;;;;;12.31;45.44;98322.66;3378028;29;19929;-82
2021/10/23 05:57:13;;;;;;;4.50;1.67;;;;;;;12.36;45.49;98357.50;3377466;29;20080;-80
2021/10/23 05:59:01;;;;;;;7.53;2.00;;;;;;;12.13;45.58;98345.88;3376720;29;20061;-78
2021/10/23 06:00:49;;;;;;;2.17;1.30;;;;;;;12.11;45.85;98353.31;3376609;29;20044;-81
2021/10/23 06:02:31;;;;;;;4.55;1.45;;;;;;;12.03;45.90;98350.19;3378257;29;20131;-80
2021/10/23 06:04:16;;;;;;;4.25;1.50;;;;;;;12.00;45.86;98354.13;3350298;29;20049;-79
2021/10/23 06:05:56;;;;;;;7.32;1.80;;;;;;;11.97;46.13;98351.94;3372865;29;20116;-81
2021/10/23 06:07:38;;;;;;;4.28;1.60;;;;;;;11.86;45.96;98347.41;3375649;29;20514;-81
2021/10/23 06:09:19;;;;;;;;;;;;;;;11.89;46.08;98349.66;3373103;29;20044;-82
2021/10/23 06:11:00;;;;;;;2.92;1.40;;;;;;;11.77;46.15;98337.13;3373763;29;20351;-81
2021/10/23 06:12:41;;;;;;;6.27;2.00;;;;;;;11.78;46.29;98360.09;3374818;29;20036;-81
2021/10/23 06:14:21;;;;;;;3.15;1.55;;;;;;;11.79;46.39;98361.69;3376629;29;20296;-80
2021/10/23 06:16:02;;;;;;;4.20;1.85;;;;;;;11.84;46.29;98353.00;3376686;29;20036;-80
2021/10/23 06:17:43;;;;;;;8.88;1.77;;;;;;;11.90;45.94;98356.59;3376205;29;20045;-80
2021/10/23 06:19:24;;;;;;;3.28;2.28;;;;;;;11.95;46.11;98348.69;3373786;29;20052;-82
2021/10/23 06:21:05;;;;;;;6.60;1.73;;;;;;;11.94;45.89;98349.75;3373937;29;20045;-81
2021/10/23 06:22:50;;;;;;;2.45;1.55;;;;;;;11.89;45.81;98353.13;3374992;29;20456;-79
2021/10/23 06:24:31;;;;;;;11.65;2.72;;;;;;;11.88;45.89;98354.19;3378693;29;20067;-80
2021/10/23 06:26:12;;;;;;;3.65;1.55;;;;;;;11.93;45.82;98356.97;3377560;29;20119;-81
2021/10/23 06:27:52;;;;;;;3.35;1.30;;;;;;;11.97;45.68;98362.63;3376028;29;20049;-81
2021/10/23 06:29:33;;;;;;;7.50;2.00;;;;;;;11.94;45.71;98360.44;3379390;29;20051;-81
2021/10/23 06:31:20;;;;;;;7.22;1.92;;;;;;;11.97;45.97;98367.97;3379081;29;20423;-81
2021/10/23 06:33:01;;;;;;;3.55;1.42;;;;;;;12.17;45.42;98368.38;3379481;29;20111;-78
2021/10/23 06:34:42;;;;;;;6.53;2.33;;;;;;;12.28;45.34;98352.53;3379684;29;20057;-80
2021/10/23 06:36:23;;;;;;;6.35;1.70;;;;;;;12.43;45.18;98366.19;3379387;29;20127;-80
2021/10/23 06:38:03;;;;;;;3.15;1.60;;;;;;;12.56;45.00;98365.88;3379065;29;20115;-80
2021/10/23 06:39:44;;;;;;;2.75;1.30;;;;;;;12.65;44.29;98366.31;3389656;29;20427;-79
2021/10/23 06:41:25;;;;;;;5.75;2.60;;;;;;;12.49;44.31;98364.41;3391045;29;20040;-82
2021/10/23 06:43:05;;;;;;;5.80;1.40;;;;;;;12.40;44.56;98362.13;3386189;29;20425;-80
2021/10/23 06:44:46;;;;;;;3.25;1.17;;;;;;;12.37;44.67;98367.97;3364858;29;20049;-80
2021/10/23 06:46:27;;;;;;;7.72;1.50;;;;;;;12.31;44.45;98360.06;3388403;29;20452;-81
2021/10/23 06:48:11;;;;;;;4.82;1.35;;;;;;;12.20;44.96;98357.22;3389204;29;20048;-81
2021/10/23 06:49:53;;;;;;;2.30;1.70;;;;;;;12.25;44.78;98361.03;3382392;29;20045;-80
2021/10/23 06:51:34;;;;;;;3.63;1.42;;;;;;;12.34;44.81;98356.91;3377846;29;20040;-80
2021/10/23 06:53:17;;;;;;;4.07;1.42;;;;;;;12.51;44.81;98365.00;3379724;29;20052;-80
2021/10/23 06:54:58;;;;;;;6.47;2.08;;;;;;;12.62;44.74;98359.59;3382325;29;20607;-81
2021/10/23 06:56:38;;;;;;;3.65;1.58;;;;;;;12.65;44.30;98364.47;3383657;29;20051;-80
2021/10/23 06:58:19;;;;;;;6.13;1.60;;;;;;;12.68;44.47;98365.03;3390469;29;20044;-80
2021/10/23 07:00:00;;;;;;;8.10;1.35;;;;;;;12.81;44.42;98372.75;3389750;29;20040;-80
2021/10/23 07:01:41;;;;;;;3.63;1.48;;;;;;;12.93;44.00;98378.81;3384977;29;20044;-79
2021/10/23 07:03:21;;;;;;;2.88;1.50;;;;;;;13.08;43.86;98376.38;3389617;29;20502;-83
2021/10/23 07:05:02;;;;;;;3.92;1.23;;;;;;;13.07;43.63;98356.06;3385222;29;20044;-82
2021/10/23 07:06:43;;;;;;;7.03;1.40;;;;;;;13.12;44.01;98374.06;3390198;29;20127;-79
2021/10/23 07:08:24;;;;;;;7.68;1.15;;;;;;;13.19;43.92;98371.19;3390286;29;20089;-78
2021/10/23 07:10:05;;;;;;;3.72;1.35;;;;;;;13.22;43.65;98368.06;3390044;29;20036;-82
2021/10/23 07:11:46;;;;;;;6.10;1.67;;;;;;;13.15;43.21;98362.06;3389365;29;20048;-82
2021/10/23 07:13:26;;;;;;;3.40;1.40;;;;;;;13.14;43.26;98366.59;3387125;29;20069;-84
2021/10/23 07:15:08;;;;;;;8.52;1.58;;;;;;;13.23;43.24;98359.78;3379675;29;20076;-81
2021/10/23 07:16:50;;;;;;;6.50;1.88;;;;;;;13.40;43.41;98351.78;3389721;29;20091;-81
2021/10/23 07:18:30;;;;;;;4.95;2.05;;;;;;;13.64;43.16;98363.06;3387025;29;20051;-81
2021/10/23 07:20:11;;;;;;;4.35;1.70;;;;;;;13.79;42.77;98357.13;3387099;29;20127;-82
2021/10/23 07:21:52;;;;;;;5.35;1.95;;;;;;;13.87;42.40;98362.03;3385980;29;20473;-82
2021/10/23 07:23:33;;;;;;;7.05;1.33;;;;;;;13.91;42.15;98365.84;3378233;29;20036;-80
2021/10/23 07:25:13;;;;;;;7.78;1.65;;;;;;;14.05;42.46;98366.28;3388289;29;20047;-81
2021/10/23 07:26:54;;;;;;;8.27;1.92;;;;;;;14.20;41.72;98365.66;3388681;29;20050;-83
2021/10/23 07:28:35;;;;;;;4.53;1.27;;;;;;;14.19;41.59;98350.63;3390116;29;20471;-83
2021/10/23 07:30:15;;;;;;;2.45;1.02;;;;;;;14.25;42.01;98357.66;3389801;29;20044;-84
2021/10/23 07:31:56;;;;;;;3.10;1.33;;;;;;;14.40;41.94;98365.88;3381530;29;20040;-82
2021/10/23 07:33:38;;;;;;;5.15;1.33;;;;;;;14.31;41.06;98353.97;3378178;29;20073;-79
2021/10/23 07:35:18;;;;;;;4.03;1.30;;;;;;;14.22;41.72;98376.09;3383051;29;20039;-80
2021/10/23 07:36:59;;;;;;;6.50;1.70;;;;;;;14.24;42.41;98385.50;3382271;29;20456;-78
2021/10/23 07:38:40;;;;;;;4.38;1.83;;;;;;;14.33;41.96;98380.53;3384952;29;20426;-73
2021/10/23 07:40:20;;;;;;;3.88;1.60;;;;;;;14.34;41.47;98391.00;3389705;29;20408;-72
2021/10/23 07:42:04;;;;;;;4.47;1.40;;;;;;;14.30;41.23;98392.56;3384093;29;20051;-72
2021/10/23 07:43:45;;;;;;;3.45;1.70;;;;;;;14.22;41.16;98382.28;3392193;29;20044;-74
2021/10/23 07:45:26;;;;;;;4.68;1.80;;;;;;;14.15;41.16;98392.38;3387615;29;20044;-72
2021/10/23 07:47:06;;;;;;;10.20;1.80;;;;;;;14.09;41.55;98398.72;3380094;29;20043;-72
2021/10/23 07:48:47;;;;;;;5.80;2.33;;;;;;;14.01;41.46;98396.50;3384424;29;20122;-71
2021/10/23 07:50:28;;;;;;;7.88;1.90;;;;;;;13.85;41.54;98393.59;3386864;29;20125;-72
2021/10/23 07:52:08;;;;;;;5.40;1.27;;;;;;;13.81;41.62;98395.19;3389601;29;20119;-69
2021/10/23 07:53:54;;;;;;;3.20;1.33;;;;;;;13.72;41.64;98402.00;3387298;29;20036;-71
2021/10/23 07:55:34;;;;;;;5.20;1.95;;;;;;;13.66;41.77;98400.31;3388002;29;20411;-70
2021/10/23 07:57:16;;;;;;;7.10;1.55;;;;;;;13.58;42.04;98406.06;3388296;29;20048;-71